Time;durP1;ratioP1;P1;durP2;ratioP2;P2;SDS_P1;SDS_P2;PMS_P1;PMS_P2;Temp;Humidity;BMP_temperature;BMP_pressure;BME280_temperature;BME280_humidity;BME280_pressure;Samples;Min_cycle;Max_cycle;Signal;HPM_P1;HPM_P2
2024/03/13 00:00:46;;;;;;;;;;;5.40;99.90;;;;;;4993032;28;19930;-65
2024/03/13 00:03:18;;;;;;;;;;;5.40;99.90;;;;;;4976795;28;20023;-64
2024/03/13 00:05:50;;;;;;;;;;;5.30;99.90;;;;;;4983459;28;19937;-64
2024/03/13 00:08:22;;;;;;;;;;;5.40;99.90;;;;;;4984231;28;20394;-64
2024/03/13 00:10:54;;;;;;;;;;;5.40;99.90;;;;;;4982931;28;19926;-64
2024/03/13 00:13:23;;;;;;;;;;;5.40;99.90;;;;;;4986620;28;20398;-64
2024/03/13 00:15:57;;;;;;;;;;;5.40;99.90;;;;;;4972112;28;20037;-65
2024/03/13 00:18:24;;;;;;;;;;;5.40;99.90;;;;;;4974105;28;19929;-64
2024/03/13 00:20:50;;;;;;;;;;;5.40;99.90;;;;;;4997976;28;19969;-64
2024/03/13 00:23:18;;;;;;;;;;;5.40;99.90;;;;;;5001582;28;19934;-64
2024/03/13 00:25:49;;;;;;;;;;;5.40;99.90;;;;;;4983286;28;19926;-65
2024/03/13 00:28:22;;;;;;;;;;;5.30;99.90;;;;;;4998608;28;19925;-64
2024/03/13 00:30:54;;;;;;;;;;;5.30;99.90;;;;;;4993298;28;19932;-64
2024/03/13 00:33:26;;;;;;;;;;;5.30;99.90;;;;;;4996965;28;20354;-65
2024/03/13 00:35:58;;;;;;;;;;;5.30;99.90;;;;;;4995211;28;19980;-64
2024/03/13 00:38:25;;;;;;;;;;;5.30;99.90;;;;;;4983088;28;19932;-64
2024/03/13 00:40:52;;;;;;;;;;;5.30;99.90;;;;;;4997920;28;19926;-64
2024/03/13 00:43:24;;;;;;;;;;;5.30;99.90;;;;;;4999526;28;20378;-65
2024/03/13 00:45:59;;;;;;;;;;;5.20;99.90;;;;;;5001375;28;20412;-64
2024/03/13 00:48:32;;;;;;;;;;;5.30;99.90;;;;;;4983666;28;19926;-65
2024/03/13 00:51:04;;;;;;;;;;;5.30;99.90;;;;;;4981542;28;19930;-64
2024/03/13 00:53:38;;;;;;;;;;;5.30;99.90;;;;;;5001325;28;19925;-64
2024/03/13 00:56:11;;;;;;;;;;;5.30;99.90;;;;;;4980879;28;19958;-65
2024/03/13 00:58:42;;;;;;;;;;;5.30;99.90;;;;;;4978724;28;20302;-64
2024/03/13 01:01:17;;;;;;;;;;;5.30;99.90;;;;;;4976208;28;19927;-64
2024/03/13 01:03:49;;;;;;;;;;;5.30;99.90;;;;;;4984439;28;20314;-64
2024/03/13 01:06:21;;;;;;;;;;;5.20;99.90;;;;;;4982236;28;20004;-64
2024/03/13 01:08:53;;;;;;;;;;;5.20;99.90;;;;;;4984480;28;19926;-64
2024/03/13 01:11:27;;;;;;;;;;;5.30;99.90;;;;;;4987189;28;19933;-64
2024/03/13 01:14:03;;;;;;;;;;;5.30;99.90;;;;;;4984866;28;20032;-64
2024/03/13 01:16:34;;;;;;;;;;;5.30;99.90;;;;;;4975519;28;20305;-64
2024/03/13 01:19:07;;;;;;;;;;;5.20;99.90;;;;;;4985827;28;19948;-64
2024/03/13 01:21:39;;;;;;;;;;;5.20;99.90;;;;;;4980026;28;19933;-64
2024/03/13 01:24:06;;;;;;;;;;;5.20;99.90;;;;;;4976160;28;20393;-64
2024/03/13 01:26:38;;;;;;;;;;;5.20;99.90;;;;;;4983512;28;20000;-64
2024/03/13 01:29:10;;;;;;;;;;;5.20;99.90;;;;;;4981200;28;19926;-64
2024/03/13 01:31:41;;;;;;;;;;;5.20;99.90;;;;;;4985459;28;20361;-64
2024/03/13 01:34:14;;;;;;;;;;;5.20;99.90;;;;;;4984634;28;19934;-64
2024/03/13 01:39:32;;;;;;;;;;;5.10;99.90;;;;;;4981545;28;19976;-64
2024/03/13 01:56:47;;;;;;;;;;;5.10;99.90;;;;;;4932778;28;19930;-63
2024/03/13 01:59:23;;;;;;;;;;;5.10;99.90;;;;;;4982512;28;19977;-64
2024/03/13 02:04:48;;;;;;;;;;;5.10;99.90;;;;;;4985367;28;20026;-64
2024/03/13 02:07:23;;;;;;;;;;;5.10;99.90;;;;;;4985072;28;19926;-64
2024/03/13 02:09:55;;;;;;;;;;;5.00;99.90;;;;;;4970834;28;19926;-64
2024/03/13 02:12:27;;;;;;;;;;;5.00;99.90;;;;;;4985149;28;19930;-64
2024/03/13 02:14:59;;;;;;;;;;;5.10;99.90;;;;;;4978486;28;19927;-64
2024/03/13 02:17:35;;;;;;;;;;;5.00;99.90;;;;;;4981816;28;19929;-64
2024/03/13 02:20:09;;;;;;;;;;;5.10;99.90;;;;;;4984240;28;20283;-63
2024/03/13 02:22:41;;;;;;;;;;;5.00;99.90;;;;;;4981516;28;19930;-65
2024/03/13 02:25:08;;;;;;;;;;;5.00;99.90;;;;;;4983506;28;19926;-64
2024/03/13 02:27:35;;;;;;;;;;;5.00;99.90;;;;;;4964476;28;19975;-65
2024/03/13 02:30:08;;;;;;;;;;;5.00;99.90;;;;;;4984994;28;20406;-63
2024/03/13 02:32:40;;;;;;;;;;;5.00;99.90;;;;;;4972974;28;19929;-64
2024/03/13 02:35:12;;;;;;;;;;;5.00;99.90;;;;;;4982666;28;20041;-64
2024/03/13 02:37:44;;;;;;;;;;;4.90;99.90;;;;;;4985141;28;19945;-64
2024/03/13 02:40:16;;;;;;;;;;;4.90;99.90;;;;;;4972854;28;20309;-64
2024/03/13 02:42:48;;;;;;;;;;;4.90;99.90;;;;;;4977121;28;19926;-64
2024/03/13 02:45:20;;;;;;;;;;;4.90;99.90;;;;;;4982417;28;19926;-64
2024/03/13 02:47:51;;;;;;;;;;;4.90;99.90;;;;;;4982736;28;19961;-64
2024/03/13 02:50:19;;;;;;;;;;;4.90;99.90;;;;;;4991048;28;19933;-64
2024/03/13 02:52:46;;;;;;;;;;;4.90;99.90;;;;;;4988078;28;19973;-64
2024/03/13 02:55:18;;;;;;;;;;;4.90;99.90;;;;;;4979092;28;19929;-64
2024/03/13 02:57:51;;;;;;;;;;;4.80;99.90;;;;;;4979187;28;20024;-64
2024/03/13 03:00:25;;;;;;;;;;;4.80;99.90;;;;;;4992488;28;19930;-64
2024/03/13 03:02:57;;;;;;;;;;;4.70;99.90;;;;;;4988218;28;19926;-64
2024/03/13 03:05:30;;;;;;;;;;;4.70;99.90;;;;;;4982736;28;21179;-64
2024/03/13 03:08:03;;;;;;;;;;;4.70;99.90;;;;;;4987892;28;19937;-64
2024/03/13 03:10:30;;;;;;;;;;;4.70;99.90;;;;;;4983478;28;20329;-64
2024/03/13 03:13:02;;;;;;;;;;;4.60;99.90;;;;;;4985917;28;19965;-64
2024/03/13 03:15:33;;;;;;;;;;;4.60;99.90;;;;;;4978531;28;20402;-64
2024/03/13 03:18:00;;;;;;;;;;;4.60;99.90;;;;;;4985234;28;19930;-64
2024/03/13 03:20:32;;;;;;;;;;;4.50;99.90;;;;;;4989971;28;20322;-64
2024/03/13 03:23:04;;;;;;;;;;;4.50;99.90;;;;;;4989714;28;19930;-64
2024/03/13 03:25:37;;;;;;;;;;;4.40;99.90;;;;;;4978811;28;19932;-64
2024/03/13 03:28:11;;;;;;;;;;;4.40;99.90;;;;;;4982554;28;19926;-64
2024/03/13 03:30:41;;;;;;;;;;;4.40;99.90;;;;;;4988749;28;20326;-64
2024/03/13 03:33:13;;;;;;;;;;;4.40;99.90;;;;;;4982721;28;20313;-64
2024/03/13 03:35:40;;;;;;;;;;;4.30;99.90;;;;;;4979195;28;19953;-64
2024/03/13 03:38:12;;;;;;;;;;;4.30;99.90;;;;;;4967734;28;19957;-64
2024/03/13 03:40:43;;;;;;;;;;;4.20;99.90;;;;;;4984373;28;19933;-64
2024/03/13 03:43:17;;;;;;;;;;;4.20;99.90;;;;;;4978646;28;20027;-64
2024/03/13 03:45:49;;;;;;;;;;;4.20;99.90;;;;;;4988772;28;19933;-64
2024/03/13 03:48:21;;;;;;;;;;;4.10;99.90;;;;;;4972378;28;19926;-64
2024/03/13 03:50:48;;;;;;;;;;;4.00;99.90;;;;;;4986190;28;19930;-64
2024/03/13 03:53:20;;;;;;;;;;;4.00;99.90;;;;;;4978227;28;19926;-64
2024/03/13 03:55:52;;;;;;;;;;;4.00;99.90;;;;;;4976924;28;19965;-64
2024/03/13 03:58:23;;;;;;;;;;;4.00;99.90;;;;;;4949154;28;20408;-64
2024/03/13 04:00:52;;;;;;;;;;;3.90;99.90;;;;;;4988188;28;19926;-64
2024/03/13 04:03:24;;;;;;;;;;;3.80;99.90;;;;;;4983590;28;19965;-64
2024/03/13 04:05:57;;;;;;;;;;;3.70;99.90;;;;;;4980948;28;19933;-64
2024/03/13 04:08:24;;;;;;;;;;;3.70;99.90;;;;;;4987568;28;20044;-64
2024/03/13 04:10:50;;;;;;;;;;;3.70;99.90;;;;;;4985741;28;19973;-64
2024/03/13 04:13:22;;;;;;;;;;;3.70;99.90;;;;;;4992445;28;19979;-64
2024/03/13 04:15:54;;;;;;;;;;;3.70;99.90;;;;;;4987540;28;19933;-64
2024/03/13 04:18:25;;;;;;;;;;;3.70;99.90;;;;;;4977170;28;19933;-64
2024/03/13 04:20:57;;;;;;;;;;;3.70;99.90;;;;;;4985552;28;19932;-63
2024/03/13 04:23:24;;;;;;;;;;;3.70;99.90;;;;;;4982608;28;20028;-64
2024/03/13 04:25:56;;;;;;;;;;;3.70;99.90;;;;;;4986528;28;19926;-64
2024/03/13 04:28:28;;;;;;;;;;;3.60;99.90;;;;;;4979488;28;20416;-64
2024/03/13 04:31:01;;;;;;;;;;;3.60;99.90;;;;;;4975164;28;19926;-64
2024/03/13 04:33:34;;;;;;;;;;;3.60;99.90;;;;;;4985608;28;19956;-64
2024/03/13 04:36:01;;;;;;;;;;;3.60;99.90;;;;;;4983758;28;19926;-64
2024/03/13 04:38:33;;;;;;;;;;;3.50;99.90;;;;;;4988110;28;19933;-64
2024/03/13 04:41:08;;;;;;;;;;;3.50;99.90;;;;;;4987155;28;20390;-64
2024/03/13 04:43:40;;;;;;;;;;;3.60;99.90;;;;;;4985573;28;19933;-64
2024/03/13 04:46:16;;;;;;;;;;;3.50;99.90;;;;;;4981558;28;19926;-64
2024/03/13 04:48:44;;;;;;;;;;;3.50;99.90;;;;;;4988804;28;19930;-64
2024/03/13 04:51:16;;;;;;;;;;;3.50;99.90;;;;;;4980457;28;19926;-64
2024/03/13 04:53:48;;;;;;;;;;;3.50;99.90;;;;;;4977146;28;19948;-63
2024/03/13 04:56:19;;;;;;;;;;;3.50;99.90;;;;;;4974270;28;19932;-63
2024/03/13 04:58:46;;;;;;;;;;;3.50;99.90;;;;;;4981247;28;20017;-64
2024/03/13 05:01:18;;;;;;;;;;;3.50;99.90;;;;;;4987218;28;19926;-63
2024/03/13 05:03:50;;;;;;;;;;;3.50;99.90;;;;;;4986758;28;19933;-64
2024/03/13 05:06:23;;;;;;;;;;;3.50;99.90;;;;;;4975768;28;19936;-64
2024/03/13 05:08:54;;;;;;;;;;;3.50;99.90;;;;;;4984552;28;19926;-64
2024/03/13 05:11:26;;;;;;;;;;;3.50;99.90;;;;;;4987063;28;19930;-64
2024/03/13 05:13:58;;;;;;;;;;;3.40;99.90;;;;;;4985295;28;20306;-64
2024/03/13 05:16:30;;;;;;;;;;;3.50;99.90;;;;;;4964973;28;19937;-64
2024/03/13 05:19:01;;;;;;;;;;;3.50;99.90;;;;;;4987322;28;19965;-64
2024/03/13 05:21:33;;;;;;;;;;;3.40;99.90;;;;;;4981577;28;19930;-64
2024/03/13 05:24:00;;;;;;;;;;;3.40;99.90;;;;;;4972765;28;20390;-63
2024/03/13 05:26:33;;;;;;;;;;;3.40;99.90;;;;;;4990328;28;19932;-64
2024/03/13 05:29:08;;;;;;;;;;;3.40;99.90;;;;;;4989852;28;20309;-63
2024/03/13 05:31:39;;;;;;;;;;;3.40;99.90;;;;;;4991713;28;19965;-64
2024/03/13 05:34:11;;;;;;;;;;;3.50;99.90;;;;;;4981333;28;19953;-64
2024/03/13 05:36:38;;;;;;;;;;;3.50;99.90;;;;;;4999035;28;20409;-64
2024/03/13 05:39:12;;;;;;;;;;;3.50;99.90;;;;;;4980249;28;19972;-64
2024/03/13 05:41:45;;;;;;;;;;;3.50;99.90;;;;;;4999381;28;19976;-64
2024/03/13 05:44:17;;;;;;;;;;;3.60;99.90;;;;;;4968691;28;19957;-65
2024/03/13 05:46:44;;;;;;;;;;;3.60;99.90;;;;;;4989566;28;19940;-64
2024/03/13 05:49:16;;;;;;;;;;;3.50;99.90;;;;;;4986708;28;19926;-64
2024/03/13 05:51:48;;;;;;;;;;;3.60;99.90;;;;;;4983217;28;19925;-64
2024/03/13 05:54:20;;;;;;;;;;;3.60;99.90;;;;;;4984320;28;19926;-64
2024/03/13 05:56:52;;;;;;;;;;;3.60;99.90;;;;;;4971418;28;19933;-64
2024/03/13 05:59:24;;;;;;;;;;;3.60;99.90;;;;;;4968228;28;19985;-64
2024/03/13 06:01:56;;;;;;;;;;;3.60;99.90;;;;;;4988182;28;19952;-63
2024/03/13 06:04:22;;;;;;;;;;;3.60;99.90;;;;;;4983699;28;19926;-64
2024/03/13 06:06:55;;;;;;;;;;;3.50;99.90;;;;;;4987964;28;20466;-64
2024/03/13 06:09:23;;;;;;;;;;;3.50;99.90;;;;;;4972489;28;20024;-65
2024/03/13 06:11:54;;;;;;;;;;;3.60;99.90;;;;;;4985242;28;19936;-64
2024/03/13 06:14:26;;;;;;;;;;;3.60;99.90;;;;;;4987335;28;20428;-64
2024/03/13 06:16:58;;;;;;;;;;;3.60;99.90;;;;;;4981844;28;19926;-64
2024/03/13 06:19:30;;;;;;;;;;;3.70;99.90;;;;;;4973226;28;19926;-64
2024/03/13 06:22:02;;;;;;;;;;;3.80;99.90;;;;;;4990529;28;19980;-63
2024/03/13 06:24:32;;;;;;;;;;;3.80;99.90;;;;;;4988228;28;20449;-64
2024/03/13 06:27:09;;;;;;;;;;;3.90;99.90;;;;;;4971164;28;19961;-64
2024/03/13 06:29:58;;;;;;;;;;;3.90;99.90;;;;;;4985596;28;19937;-64
2024/03/13 06:32:31;;;;;;;;;;;3.90;99.90;;;;;;4971072;28;19947;-63
2024/03/13 06:35:06;;;;;;;;;;;4.00;99.90;;;;;;4981918;28;20028;-64
2024/03/13 06:37:38;;;;;;;;;;;4.00;99.90;;;;;;4969479;28;19945;-64
2024/03/13 06:40:10;;;;;;;;;;;4.00;99.90;;;;;;4982513;28;19929;-63
2024/03/13 06:42:42;;;;;;;;;;;4.10;99.90;;;;;;4972304;28;20025;-64
2024/03/13 06:45:14;;;;;;;;;;;4.10;99.90;;;;;;4987670;28;19926;-64
2024/03/13 06:47:41;;;;;;;;;;;4.20;99.90;;;;;;4985865;28;20017;-63
2024/03/13 06:50:13;;;;;;;;;;;4.20;99.90;;;;;;4986227;28;20023;-64
2024/03/13 06:52:44;;;;;;;;;;;4.20;99.90;;;;;;4986963;28;19933;-64
2024/03/13 06:55:16;;;;;;;;;;;4.30;99.90;;;;;;4970829;28;19969;-64
2024/03/13 06:57:51;;;;;;;;;;;4.30;99.90;;;;;;4990711;28;19976;-63
2024/03/13 07:00:27;;;;;;;;;;;4.30;99.90;;;;;;4984559;28;19925;-64
2024/03/13 07:03:01;;;;;;;;;;;4.40;99.90;;;;;;4970451;28;19969;-64
2024/03/13 07:05:33;;;;;;;;;;;4.40;99.90;;;;;;4980675;28;20023;-64
2024/03/13 07:08:05;;;;;;;;;;;4.50;99.90;;;;;;4982733;28;19936;-64
2024/03/13 07:10:32;;;;;;;;;;;4.50;99.90;;;;;;4984960;28;19961;-64
2024/03/13 07:12:59;;;;;;;;;;;4.50;99.90;;;;;;4982541;28;20032;-64
2024/03/13 07:15:26;;;;;;;;;;;4.60;99.90;;;;;;4983726;28;20325;-64
2024/03/13 07:17:57;;;;;;;;;;;4.60;99.90;;;;;;4972638;28;19925;-69
2024/03/13 07:20:30;;;;;;;;;;;4.60;99.90;;;;;;4972400;28;19926;-63
2024/03/13 07:23:02;;;;;;;;;;;4.70;99.90;;;;;;4984185;28;19940;-64
2024/03/13 07:25:33;;;;;;;;;;;4.70;99.90;;;;;;4984567;28;19929;-64
2024/03/13 07:28:00;;;;;;;;;;;4.70;99.90;;;;;;4989251;28;19926;-64
2024/03/13 07:30:32;;;;;;;;;;;4.80;99.90;;;;;;4988689;28;19984;-63
2024/03/13 07:33:08;;;;;;;;;;;4.90;99.90;;;;;;4983273;28;20016;-64
2024/03/13 07:35:40;;;;;;;;;;;4.90;99.90;;;;;;4980610;28;19926;-64
2024/03/13 07:38:13;;;;;;;;;;;4.90;99.90;;;;;;4976257;28;20398;-63
2024/03/13 07:40:45;;;;;;;;;;;5.00;99.90;;;;;;4989087;28;19930;-63
2024/03/13 07:43:17;;;;;;;;;;;5.00;99.90;;;;;;4986668;28;20588;-64
2024/03/13 07:45:48;;;;;;;;;;;5.10;99.90;;;;;;4987541;28;19926;-64
2024/03/13 07:48:20;;;;;;;;;;;5.10;99.90;;;;;;4987482;28;19926;-64
2024/03/13 07:50:52;;;;;;;;;;;5.10;99.90;;;;;;4979697;28;20043;-64
2024/03/13 07:53:23;;;;;;;;;;;5.10;99.90;;;;;;4985871;28;19926;-64
2024/03/13 07:55:55;;;;;;;;;;;5.20;99.90;;;;;;4977639;28;19936;-64
2024/03/13 07:58:27;;;;;;;;;;;5.20;99.90;;;;;;4979661;28;19936;-64
2024/03/13 08:01:01;;;;;;;;;;;5.40;99.90;;;;;;4982491;28;19929;-63
2024/03/13 08:03:33;;;;;;;;;;;5.40;99.90;;;;;;4973496;28;20367;-62
2024/03/13 08:06:05;;;;;;;;;;;5.50;99.90;;;;;;4985870;28;19965;-64
2024/03/13 08:08:49;;;;;;;;;;;5.50;99.90;;;;;;4985400;28;20015;-64
2024/03/13 08:11:33;;;;;;;;;;;5.60;99.90;;;;;;4985487;28;19921;-64
2024/03/13 08:14:18;;;;;;;;;;;5.80;99.90;;;;;;4984195;28;20298;-64
2024/03/13 08:17:02;;;;;;;;;;;5.90;99.90;;;;;;4985821;28;19956;-64
2024/03/13 08:19:47;;;;;;;;;;;6.00;99.90;;;;;;4985302;28;19918;-63
2024/03/13 08:22:31;;;;;;;;;;;6.10;99.90;;;;;;4977780;28;19913;-64
2024/03/13 08:25:16;;;;;;;;;;;6.20;99.90;;;;;;4982888;28;20443;-63
2024/03/13 08:28:01;;;;;;;;;;;6.30;99.90;;;;;;4980240;28;19922;-63
2024/03/13 08:30:46;;;;;;;;;;;6.20;99.90;;;;;;4984447;28;19957;-63
2024/03/13 08:33:31;;;;;;;;;;;6.30;99.90;;;;;;4983958;28;19922;-63
2024/03/13 08:36:18;;;;;;;;;;;6.30;99.90;;;;;;4970474;28;19925;-64
2024/03/13 08:39:02;;;;;;;;;;;6.40;99.90;;;;;;4974709;28;19949;-64
2024/03/13 08:41:46;;;;;;;;;;;6.50;99.90;;;;;;4989401;28;19917;-63
2024/03/13 08:44:30;;;;;;;;;;;6.50;99.90;;;;;;4984528;28;20063;-64
2024/03/13 08:47:14;;;;;;;;;;;6.50;99.90;;;;;;4984980;28;20461;-64
2024/03/13 08:49:58;;;;;;;;;;;6.70;99.90;;;;;;4985205;28;19914;-64
2024/03/13 08:52:43;;;;;;;;;;;6.80;99.90;;;;;;4982285;28;19920;-63
2024/03/13 08:55:27;;;;;;;;;;;6.90;99.90;;;;;;4983887;28;19914;-63
2024/03/13 08:58:11;;;;;;;;;;;7.00;99.90;;;;;;4982942;28;19918;-63
2024/03/13 09:00:56;;;;;;;;;;;7.00;99.90;;;;;;4985563;28;19917;-63
2024/03/13 09:03:40;;;;;;;;;;;7.00;99.90;;;;;;4989225;28;19928;-63
2024/03/13 09:06:24;;;;;;;;;;;7.10;99.90;;;;;;4985755;28;19925;-64
2024/03/13 09:08:51;;;;;;;;;;;7.20;99.90;;;;;;4984418;28;20017;-63
2024/03/13 09:11:23;;;;;;;;;;;7.30;99.90;;;;;;4989980;28;20498;-64
2024/03/13 09:14:01;;;;;;;;;;;7.30;99.90;;;;;;4984822;28;19926;-64
2024/03/13 09:16:33;;;;;;;;;;;7.40;99.90;;;;;;4978313;28;20326;-64
2024/03/13 09:19:05;;;;;;;;;;;7.50;99.90;;;;;;4984521;28;19941;-64
2024/03/13 09:21:38;;;;;;;;;;;7.60;99.90;;;;;;4983675;28;19933;-64
2024/03/13 09:24:10;;;;;;;;;;;7.70;99.90;;;;;;4984322;28;20023;-64
2024/03/13 09:26:42;;;;;;;;;;;7.70;99.90;;;;;;4971757;28;19939;-63
2024/03/13 09:29:14;;;;;;;;;;;7.80;99.90;;;;;;4966592;28;19937;-64
2024/03/13 09:31:46;;;;;;;;;;;7.90;99.90;;;;;;4984720;28;19966;-64
2024/03/13 09:34:13;;;;;;;;;;;7.90;99.90;;;;;;4985687;28;19930;-64
2024/03/13 09:36:45;;;;;;;;;;;8.00;99.90;;;;;;4984782;28;19926;-64
2024/03/13 09:39:17;;;;;;;;;;;8.00;99.90;;;;;;4980703;28;19926;-64
2024/03/13 09:41:52;;;;;;;;;;;8.00;99.90;;;;;;4981612;28;20024;-64
2024/03/13 09:44:25;;;;;;;;;;;8.10;99.90;;;;;;4971443;28;20299;-64
2024/03/13 09:46:57;;;;;;;;;;;8.00;99.90;;;;;;4984936;28;19964;-63
2024/03/13 09:49:29;;;;;;;;;;;8.10;99.90;;;;;;4985677;28;20012;-64
2024/03/13 09:51:56;;;;;;;;;;;8.20;99.90;;;;;;4984678;28;19932;-64
2024/03/13 09:54:28;;;;;;;;;;;8.20;99.90;;;;;;4981967;28;20465;-64
2024/03/13 09:57:00;;;;;;;;;;;8.20;99.90;;;;;;4972265;28;20048;-63
2024/03/13 09:59:32;;;;;;;;;;;8.30;99.90;;;;;;4968954;28;19925;-63
2024/03/13 10:02:11;;;;;;;;;;;8.30;99.90;;;;;;4983219;28;19996;-64
2024/03/13 10:04:38;;;;;;;;;;;8.30;99.90;;;;;;4980470;28;19926;-63
2024/03/13 10:07:14;;;;;;;;;;;8.30;99.90;;;;;;4978408;28;19936;-63
2024/03/13 10:09:48;;;;;;;;;;;8.30;99.90;;;;;;4960778;28;19930;-63
2024/03/13 10:12:20;;;;;;;;;;;8.40;99.90;;;;;;4985181;28;19932;-63
2024/03/13 10:14:52;;;;;;;;;;;8.50;99.90;;;;;;4972654;28;19926;-63
2024/03/13 10:17:22;;;;;;;;;;;8.50;99.90;;;;;;4979766;28;19972;-64
2024/03/13 10:19:55;;;;;;;;;;;8.60;99.90;;;;;;4985308;28;19930;-64
2024/03/13 10:22:27;;;;;;;;;;;8.60;99.90;;;;;;4984473;28;19926;-63
2024/03/13 10:25:00;;;;;;;;;;;8.60;99.90;;;;;;4957028;28;19951;-64
2024/03/13 10:27:32;;;;;;;;;;;8.70;99.90;;;;;;4984764;28;19936;-64
2024/03/13 10:30:05;;;;;;;;;;;8.70;99.90;;;;;;4984426;28;20004;-63
2024/03/13 10:32:37;;;;;;;;;;;8.80;99.90;;;;;;4976999;28;19926;-63
2024/03/13 10:35:14;;;;;;;;;;;8.80;99.90;;;;;;4973068;28;20036;-63
2024/03/13 10:37:46;;;;;;;;;;;8.80;99.90;;;;;;4977566;28;19930;-63
2024/03/13 10:40:18;;;;;;;;;;;8.70;99.90;;;;;;4980243;28;19926;-63
2024/03/13 10:42:50;;;;;;;;;;;8.70;99.90;;;;;;4984942;28;19930;-63
2024/03/13 10:45:17;;;;;;;;;;;8.70;99.90;;;;;;4984144;28;20016;-63
2024/03/13 10:47:48;;;;;;;;;;;8.70;99.90;;;;;;4983328;28;19934;-64
2024/03/13 10:50:20;;;;;;;;;;;8.70;99.90;;;;;;4966411;28;19929;-63
2024/03/13 10:52:51;;;;;;;;;;;8.80;99.90;;;;;;4988572;28;19934;-63
2024/03/13 10:55:27;;;;;;;;;;;8.90;99.90;;;;;;4981722;28;19929;-63
2024/03/13 10:57:59;;;;;;;;;;;9.00;99.90;;;;;;4979936;28;19933;-63
2024/03/13 11:00:31;;;;;;;;;;;9.00;99.90;;;;;;4967880;28;19933;-63
2024/03/13 11:03:04;;;;;;;;;;;9.00;99.90;;;;;;4976093;28;19926;-63
2024/03/13 11:05:37;;;;;;;;;;;9.10;99.90;;;;;;4971655;28;19973;-64
2024/03/13 11:08:09;;;;;;;;;;;9.20;99.90;;;;;;4986668;28;20504;-63
2024/03/13 11:10:41;;;;;;;;;;;9.30;99.90;;;;;;4981485;28;19929;-63
2024/03/13 11:13:13;;;;;;;;;;;9.30;99.90;;;;;;4987960;28;20306;-63
2024/03/13 11:15:45;;;;;;;;;;;9.30;99.90;;;;;;4975864;28;19934;-64
2024/03/13 11:18:17;;;;;;;;;;;9.30;99.90;;;;;;4986258;28;19926;-63
2024/03/13 11:21:02;;;;;;;;;;;9.30;99.90;;;;;;4986153;28;19973;-63
2024/03/13 11:23:33;;;;;;;;;;;9.30;99.90;;;;;;4974451;28;19965;-63
2024/03/13 11:26:06;;;;;;;;;;;9.20;99.90;;;;;;4987269;28;20406;-63
2024/03/13 11:28:33;;;;;;;;;;;9.20;99.90;;;;;;4980775;28;20428;-63
2024/03/13 11:31:00;;;;;;;;;;;9.30;99.90;;;;;;4975087;28;20414;-63
2024/03/13 11:33:32;;;;;;;;;;;9.30;99.90;;;;;;4985719;28;19929;-63
2024/03/13 11:36:04;;;;;;;;;;;9.40;99.90;;;;;;4985802;28;19937;-63
2024/03/13 11:38:33;;;;;;;;;;;9.40;99.90;;;;;;4970757;28;19932;-64
2024/03/13 11:41:05;;;;;;;;;;;9.40;99.90;;;;;;4984609;28;19957;-63
2024/03/13 11:43:37;;;;;;;;;;;9.50;99.90;;;;;;4989700;28;19930;-63
2024/03/13 11:46:12;;;;;;;;;;;9.40;99.90;;;;;;4984024;28;20409;-63
2024/03/13 11:48:44;;;;;;;;;;;9.50;99.90;;;;;;4985051;28;19980;-63
2024/03/13 11:51:17;;;;;;;;;;;9.60;99.90;;;;;;4994994;28;19934;-63
2024/03/13 11:53:49;;;;;;;;;;;9.50;99.90;;;;;;4998233;28;20028;-62
2024/03/13 11:56:21;;;;;;;;;;;9.40;99.90;;;;;;4997025;28;19925;-64
2024/03/13 11:58:53;;;;;;;;;;;9.40;99.90;;;;;;4990744;28;19929;-63
2024/03/13 12:01:20;;;;;;;;;;;9.40;99.90;;;;;;4976238;28;20385;-64
2024/03/13 12:03:53;;;;;;;;;;;9.50;99.90;;;;;;4986441;28;20287;-64
2024/03/13 12:06:25;;;;;;;;;;;9.50;99.90;;;;;;4974271;28;19926;-63
2024/03/13 12:08:57;;;;;;;;;;;9.50;99.90;;;;;;4989153;28;20002;-63
2024/03/13 12:11:31;;;;;;;;;;;9.60;99.90;;;;;;4986567;28;19929;-63
2024/03/13 12:14:02;;;;;;;;;;;9.50;99.90;;;;;;4967044;28;20020;-63
2024/03/13 12:16:34;;;;;;;;;;;9.50;99.90;;;;;;4986006;28;19960;-63
2024/03/13 12:19:02;;;;;;;;;;;9.50;99.90;;;;;;4985247;28;20024;-63
2024/03/13 12:21:34;;;;;;;;;;;9.50;99.90;;;;;;4978902;28;19930;-64
2024/03/13 12:24:11;;;;;;;;;;;9.50;99.90;;;;;;4985060;28;19983;-63
2024/03/13 12:26:43;;;;;;;;;;;9.60;99.90;;;;;;4983390;28;20587;-63
2024/03/13 12:29:14;;;;;;;;;;;9.60;99.90;;;;;;4986004;28;19925;-63
2024/03/13 12:31:46;;;;;;;;;;;9.60;99.90;;;;;;4983166;28;19930;-63
2024/03/13 12:34:18;;;;;;;;;;;9.50;99.90;;;;;;4986560;28;19930;-63
2024/03/13 12:36:51;;;;;;;;;;;9.40;99.90;;;;;;4981220;28;20004;-63
2024/03/13 12:39:18;;;;;;;;;;;9.60;99.90;;;;;;4983650;28;19926;-64
2024/03/13 12:41:50;;;;;;;;;;;9.70;99.90;;;;;;4949553;28;20472;-64
2024/03/13 12:44:22;;;;;;;;;;;9.80;99.90;;;;;;4987917;28;19926;-63
2024/03/13 12:46:55;;;;;;;;;;;9.90;99.90;;;;;;4983192;28;20287;-63
2024/03/13 12:49:26;;;;;;;;;;;10.10;99.90;;;;;;4985471;28;19961;-64
2024/03/13 12:51:59;;;;;;;;;;;10.20;99.90;;;;;;4985658;28;19930;-63
2024/03/13 12:54:33;;;;;;;;;;;10.20;99.90;;;;;;4985089;28;20404;-63
2024/03/13 12:57:11;;;;;;;;;;;10.20;99.90;;;;;;4989581;28;19925;-63
2024/03/13 12:59:51;;;;;;;;;;;10.20;99.90;;;;;;4988215;28;20296;-63
2024/03/13 13:02:23;;;;;;;;;;;10.20;99.90;;;;;;4988879;28;19937;-63
2024/03/13 13:04:55;;;;;;;;;;;10.20;99.90;;;;;;4989330;28;20420;-63
2024/03/13 13:07:27;;;;;;;;;;;10.20;99.90;;;;;;4985444;28;19977;-63
2024/03/13 13:09:59;;;;;;;;;;;10.10;99.90;;;;;;4984116;28;19934;-63
2024/03/13 13:12:27;;;;;;;;;;;10.00;99.90;;;;;;4978123;28;19926;-63
2024/03/13 13:14:59;;;;;;;;;;;10.00;99.90;;;;;;4987524;28;20302;-63
2024/03/13 13:17:30;;;;;;;;;;;10.00;99.90;;;;;;4987648;28;19997;-63
2024/03/13 13:20:07;;;;;;;;;;;10.00;99.90;;;;;;4986356;28;19926;-63
2024/03/13 13:22:43;;;;;;;;;;;10.00;99.90;;;;;;4986405;28;20001;-65
2024/03/13 13:25:16;;;;;;;;;;;10.10;99.90;;;;;;4983472;28;19940;-63
2024/03/13 13:27:49;;;;;;;;;;;10.10;99.90;;;;;;4997121;28;19926;-63
2024/03/13 13:30:21;;;;;;;;;;;10.10;99.90;;;;;;4992792;28;19932;-63
2024/03/13 13:32:54;;;;;;;;;;;10.10;99.90;;;;;;4980812;28;19949;-63
2024/03/13 13:35:26;;;;;;;;;;;10.10;99.90;;;;;;4991213;28;20029;-63
2024/03/13 13:37:58;;;;;;;;;;;10.20;99.90;;;;;;4981475;28;19965;-64
2024/03/13 13:40:31;;;;;;;;;;;10.20;99.90;;;;;;4978033;28;20190;-63
2024/03/13 13:43:03;;;;;;;;;;;10.20;99.90;;;;;;4970706;28;20437;-63
2024/03/13 13:45:35;;;;;;;;;;;10.20;99.90;;;;;;4987840;28;19945;-63
2024/03/13 13:48:02;;;;;;;;;;;10.20;99.90;;;;;;4991249;28;20394;-63
2024/03/13 13:50:33;;;;;;;;;;;10.20;99.90;;;;;;4987093;28;20017;-63
2024/03/13 13:53:05;;;;;;;;;;;10.20;99.90;;;;;;4968392;28;19929;-63
2024/03/13 13:55:37;;;;;;;;;;;10.20;99.90;;;;;;4986714;28;19965;-61
2024/03/13 13:58:05;;;;;;;;;;;10.30;99.90;;;;;;4983717;28;20386;-63
2024/03/13 14:00:37;;;;;;;;;;;10.20;99.90;;;;;;4984756;28;19933;-63
2024/03/13 14:03:09;;;;;;;;;;;10.20;99.90;;;;;;4980868;28;20011;-63
2024/03/13 14:05:41;;;;;;;;;;;10.20;99.90;;;;;;4983387;28;19932;-63
2024/03/13 14:08:14;;;;;;;;;;;10.10;99.90;;;;;;4984477;28;19926;-63
2024/03/13 14:10:41;;;;;;;;;;;10.10;99.90;;;;;;4985303;28;19926;-63
2024/03/13 14:13:09;;;;;;;;;;;10.10;99.90;;;;;;4991423;28;20390;-63
2024/03/13 14:15:41;;;;;;;;;;;10.10;99.90;;;;;;4969186;28;19957;-64
2024/03/13 14:18:13;;;;;;;;;;;10.00;99.90;;;;;;4987732;28;19932;-63
2024/03/13 14:20:47;;;;;;;;;;;10.10;99.90;;;;;;4987972;28;19925;-64
2024/03/13 14:23:19;;;;;;;;;;;10.00;99.90;;;;;;4970269;28;19980;-63
2024/03/13 14:25:46;;;;;;;;;;;10.00;99.90;;;;;;4980780;28;19932;-63
2024/03/13 14:28:18;;;;;;;;;;;10.00;99.90;;;;;;4986770;28;19940;-63
2024/03/13 14:30:51;;;;;;;;;;;9.90;99.90;;;;;;4985793;28;20797;-64
2024/03/13 14:33:23;;;;;;;;;;;9.90;99.90;;;;;;4980439;28;19926;-63
2024/03/13 14:35:55;;;;;;;;;;;9.90;99.90;;;;;;4988690;28;20359;-63
2024/03/13 14:38:26;;;;;;;;;;;9.90;99.90;;;;;;4986989;28;19926;-63
2024/03/13 14:40:58;;;;;;;;;;;9.90;99.90;;;;;;4974198;28;20036;-64
2024/03/13 14:43:31;;;;;;;;;;;9.90;99.90;;;;;;4977442;28;19930;-63
2024/03/13 14:46:03;;;;;;;;;;;9.90;99.90;;;;;;4989736;28;20421;-64
2024/03/13 14:48:36;;;;;;;;;;;9.90;99.90;;;;;;4990925;28;20398;-63
2024/03/13 14:51:02;;;;;;;;;;;9.90;99.90;;;;;;4990173;28;19936;-64
2024/03/13 14:53:34;;;;;;;;;;;9.90;99.90;;;;;;4991035;28;19958;-64
2024/03/13 14:56:06;;;;;;;;;;;9.80;99.90;;;;;;4981631;28;20420;-63
2024/03/13 14:58:38;;;;;;;;;;;9.80;99.90;;;;;;4982767;28;19925;-64
2024/03/13 15:01:10;;;;;;;;;;;9.80;99.90;;;;;;4991109;28;19929;-63
2024/03/13 15:03:50;;;;;;;;;;;9.80;99.90;;;;;;4975714;28;19925;-63
2024/03/13 15:06:22;;;;;;;;;;;9.80;99.90;;;;;;4989326;28;19937;-64
2024/03/13 15:08:54;;;;;;;;;;;9.80;99.90;;;;;;4992040;28;19953;-64
2024/03/13 15:11:26;;;;;;;;;;;9.80;99.90;;;;;;4991383;28;19933;-63
2024/03/13 15:13:58;;;;;;;;;;;9.80;99.90;;;;;;4991107;28;19929;-64
2024/03/13 15:16:31;;;;;;;;;;;9.90;99.90;;;;;;4996301;28;19925;-63
2024/03/13 15:19:04;;;;;;;;;;;9.80;99.90;;;;;;4989009;28;20012;-63